createdAt,value
2023-03-10T00:01:27.548Z,54.87
2023-03-10T00:03:28.914Z,54.85
2023-03-10T00:05:30.304Z,55.42
2023-03-10T00:07:31.725Z,55.30
2023-03-10T00:09:33.088Z,55.60
2023-03-10T00:11:34.507Z,56.19
2023-03-10T00:13:35.852Z,55.75
2023-03-10T00:15:37.268Z,55.96
2023-03-10T00:17:38.664Z,56.08
2023-03-10T00:19:40.034Z,56.09
2023-03-10T00:21:41.678Z,56.48
2023-03-10T00:23:43.050Z,56.55
2023-03-10T00:25:44.388Z,57.07
2023-03-10T00:27:45.825Z,56.59
2023-03-10T00:29:47.213Z,56.58
2023-03-10T00:31:48.583Z,56.45
2023-03-10T00:33:50.031Z,56.47
2023-03-10T00:35:51.376Z,56.70
2023-03-10T00:37:53.364Z,56.35
2023-03-10T00:39:55.775Z,56.73
2023-03-10T00:41:57.224Z,56.11
2023-03-10T00:43:58.619Z,55.97
2023-03-10T00:46:00.083Z,55.86
2023-03-10T00:48:01.593Z,56.04
2023-03-10T00:50:02.940Z,55.95
2023-03-10T00:52:04.277Z,56.05
2023-03-10T00:54:05.656Z,55.38
2023-03-10T00:56:08.070Z,55.06
2023-03-10T00:58:09.475Z,55.50
2023-03-10T01:00:11.155Z,55.14
2023-03-10T01:02:12.493Z,54.92
2023-03-10T01:04:14.020Z,54.82
2023-03-10T01:06:15.452Z,55.21
2023-03-10T01:08:16.815Z,54.79
2023-03-10T01:10:18.273Z,55.35
2023-03-10T01:12:19.691Z,55.32
2023-03-10T01:14:21.124Z,55.04
2023-03-10T01:16:22.526Z,55.43
2023-03-10T01:18:23.925Z,55.35
2023-03-10T01:20:25.238Z,55.74
2023-03-10T01:22:26.557Z,55.57
2023-03-10T01:24:27.915Z,55.63
2023-03-10T01:26:29.282Z,55.58
2023-03-10T01:28:30.671Z,55.53
2023-03-10T01:30:31.984Z,55.87
2023-03-10T01:32:33.383Z,55.69
2023-03-10T01:34:35.004Z,55.84
2023-03-10T01:36:36.323Z,56.36
2023-03-10T01:38:37.757Z,56.21
2023-03-10T01:40:39.189Z,56.09
2023-03-10T01:42:40.521Z,55.94
2023-03-10T01:44:41.850Z,55.91
2023-03-10T01:46:43.278Z,56.46
2023-03-10T01:48:44.625Z,56.04
2023-03-10T01:50:45.947Z,56.11
2023-03-10T01:52:47.277Z,56.09
2023-03-10T01:54:49.869Z,56.60
2023-03-10T01:56:51.367Z,56.24
2023-03-10T01:58:52.701Z,56.38
2023-03-10T02:00:54.143Z,56.93
2023-03-10T02:02:55.539Z,56.82
2023-03-10T02:04:56.862Z,56.30
2023-03-10T02:06:58.236Z,56.49
2023-03-10T02:08:59.880Z,56.60
2023-03-10T02:11:01.284Z,56.51
2023-03-10T02:13:02.613Z,56.86
2023-03-10T02:15:04.867Z,56.82
2023-03-10T02:17:06.317Z,57.12
2023-03-10T02:19:07.699Z,57.16
2023-03-10T02:21:09.049Z,56.70
2023-03-10T02:23:10.380Z,56.09
2023-03-10T02:25:11.697Z,56.85
2023-03-10T02:27:13.057Z,56.23
2023-03-10T02:29:14.388Z,56.19
2023-03-10T02:31:15.771Z,56.36
2023-03-10T02:33:17.147Z,56.16
2023-03-10T02:35:18.467Z,56.16
2023-03-10T02:37:19.830Z,56.20
2023-03-10T02:39:21.200Z,56.16
2023-03-10T02:41:22.566Z,56.23
2023-03-10T02:43:23.889Z,56.30
2023-03-10T02:45:25.278Z,56.33
2023-03-10T02:47:26.698Z,56.62
2023-03-10T02:49:28.076Z,56.69
2023-03-10T02:51:29.402Z,56.94
2023-03-10T02:53:30.724Z,57.04
2023-03-10T02:55:32.060Z,56.79
2023-03-10T02:57:33.424Z,57.13
2023-03-10T02:59:34.740Z,57.37
2023-03-10T03:01:36.125Z,57.03
2023-03-10T03:03:37.497Z,56.90
2023-03-10T03:05:38.915Z,57.03
2023-03-10T03:07:40.294Z,56.83
2023-03-10T03:09:41.647Z,56.82
2023-03-10T03:11:43.043Z,57.13
2023-03-10T03:13:44.430Z,56.84
2023-03-10T03:15:45.750Z,57.16
2023-03-10T03:17:47.097Z,57.33
2023-03-10T03:19:48.467Z,56.98
2023-03-10T03:21:50.295Z,56.89
2023-03-10T03:23:51.652Z,57.34
2023-03-10T03:25:52.990Z,56.95
2023-03-10T03:27:54.392Z,56.79
2023-03-10T03:29:55.724Z,56.97
2023-03-10T03:31:57.142Z,56.65
2023-03-10T03:33:58.502Z,56.75
2023-03-10T03:35:59.875Z,57.32
2023-03-10T03:38:02.221Z,57.15
2023-03-10T03:40:12.665Z,56.89
2023-03-10T03:42:13.986Z,56.62
2023-03-10T03:44:15.395Z,56.17
2023-03-10T03:46:16.780Z,56.43
2023-03-10T03:48:20.043Z,55.90
2023-03-10T03:50:22.673Z,56.08
2023-03-10T03:52:24.180Z,55.84
2023-03-10T03:54:25.564Z,55.83
2023-03-10T03:56:26.904Z,55.18
2023-03-10T03:58:28.257Z,55.38
2023-03-10T04:00:30.804Z,55.28
2023-03-10T04:02:32.238Z,54.73
2023-03-10T04:04:33.635Z,54.83
2023-03-10T04:06:34.981Z,54.51
2023-03-10T04:08:36.326Z,54.23
2023-03-10T04:10:37.711Z,53.44
2023-03-10T04:12:39.058Z,53.58
2023-03-10T04:14:40.386Z,53.63
2023-03-10T04:16:41.774Z,53.44
2023-03-10T04:18:43.105Z,53.47
2023-03-10T04:20:44.459Z,53.59
2023-03-10T04:22:45.849Z,53.34
2023-03-10T04:24:47.187Z,53.49
2023-03-10T04:26:48.524Z,53.44
2023-03-10T04:28:49.865Z,53.03
2023-03-10T04:30:51.231Z,53.12
2023-03-10T04:32:52.718Z,53.09
2023-03-10T04:34:54.070Z,52.67
2023-03-10T04:36:55.482Z,52.51
2023-03-10T04:38:56.826Z,52.56
2023-03-10T04:40:58.743Z,52.19
2023-03-10T04:43:00.208Z,52.09
2023-03-10T04:45:01.531Z,51.92
2023-03-10T04:47:02.917Z,52.01
2023-03-10T04:49:04.293Z,51.99
2023-03-10T04:51:05.641Z,51.87
2023-03-10T04:53:06.971Z,51.91
2023-03-10T04:55:08.338Z,52.19
2023-03-10T04:57:09.711Z,51.77
2023-03-10T04:59:11.059Z,51.64
2023-03-10T05:01:12.481Z,51.80
2023-03-10T05:03:13.958Z,51.85
2023-03-10T05:05:15.280Z,51.94
2023-03-10T05:07:16.764Z,52.40
2023-03-10T05:09:18.737Z,52.05
2023-03-10T05:11:20.079Z,52.58
2023-03-10T05:13:21.493Z,52.20
2023-03-10T05:15:22.885Z,52.87
2023-03-10T05:17:24.432Z,52.92
2023-03-10T05:19:25.800Z,52.90
2023-03-10T05:21:27.149Z,53.20
2023-03-10T05:23:28.513Z,53.04
2023-03-10T05:25:29.905Z,52.82
2023-03-10T05:27:31.234Z,52.70
2023-03-10T05:29:32.748Z,52.98
2023-03-10T05:31:34.130Z,52.88
2023-03-10T05:33:35.492Z,52.59
2023-03-10T05:35:36.903Z,52.46
2023-03-10T05:37:39.484Z,52.62
2023-03-10T05:39:40.860Z,52.64
2023-03-10T05:41:42.213Z,52.30
2023-03-10T05:43:43.597Z,52.35
2023-03-10T05:45:45.114Z,52.35
2023-03-10T05:47:46.745Z,52.22
2023-03-10T05:49:48.080Z,52.45
2023-03-10T05:51:49.493Z,51.88
2023-03-10T05:53:50.841Z,52.02
2023-03-10T05:55:52.185Z,51.85
2023-03-10T05:57:53.681Z,51.79
2023-03-10T05:59:55.012Z,51.78
2023-03-10T06:01:56.347Z,51.45
2023-03-10T06:03:57.819Z,51.69
2023-03-10T06:05:59.337Z,51.23
2023-03-10T06:08:00.661Z,51.26
2023-03-10T06:10:02.229Z,51.11
2023-03-10T06:12:03.581Z,51.19
2023-03-10T06:14:04.917Z,51.29
2023-03-10T06:16:06.473Z,50.89
2023-03-10T06:18:10.830Z,51.23
2023-03-10T06:20:12.159Z,50.84
2023-03-10T06:22:13.497Z,51.35
2023-03-10T06:24:14.849Z,50.93
2023-03-10T06:26:16.262Z,50.86
2023-03-10T06:28:17.606Z,50.93
2023-03-10T06:30:19.507Z,51.27
2023-03-10T06:32:20.940Z,50.79
2023-03-10T06:34:22.312Z,51.22
2023-03-10T06:36:23.704Z,51.06
2023-03-10T06:38:25.166Z,51.19
2023-03-10T06:40:26.549Z,51.29
2023-03-10T06:42:27.992Z,50.98
2023-03-10T06:44:29.342Z,51.17
2023-03-10T06:46:30.888Z,51.32
2023-03-10T06:48:32.297Z,51.41
2023-03-10T06:50:33.633Z,51.53
2023-03-10T06:52:35.019Z,51.37
2023-03-10T06:54:36.350Z,51.35
2023-03-10T06:56:37.792Z,51.21
2023-03-10T06:58:39.136Z,51.48
2023-03-10T07:00:40.497Z,51.35
2023-03-10T07:02:41.854Z,51.20
2023-03-10T07:04:43.335Z,51.55
2023-03-10T07:06:44.806Z,51.48
2023-03-10T07:08:46.141Z,51.42
2023-03-10T07:10:47.492Z,51.19
2023-03-10T07:12:54.840Z,51.12
2023-03-10T07:14:56.208Z,51.42
2023-03-10T07:16:58.802Z,51.27
2023-03-10T07:19:00.250Z,51.48
2023-03-10T07:21:01.588Z,51.44
2023-03-10T07:23:02.934Z,51.48
2023-03-10T07:25:05.030Z,51.32
2023-03-10T07:27:06.408Z,51.27
2023-03-10T07:29:07.724Z,51.28
2023-03-10T07:31:09.134Z,51.19
2023-03-10T07:33:10.505Z,51.32
2023-03-10T07:35:11.887Z,51.06
2023-03-10T07:37:13.258Z,51.21
2023-03-10T07:39:14.616Z,51.03
2023-03-10T07:41:16.047Z,50.78
2023-03-10T07:43:17.406Z,50.89
2023-03-10T07:45:19.139Z,50.56
2023-03-10T07:47:20.550Z,50.73
2023-03-10T07:49:22.443Z,50.80
2023-03-10T07:51:23.878Z,50.83
2023-03-10T07:53:25.248Z,50.75
2023-03-10T07:55:26.575Z,50.32
2023-03-10T07:57:28.009Z,50.48
2023-03-10T07:59:29.405Z,50.54
2023-03-10T08:01:30.728Z,50.51
2023-03-10T08:03:34.150Z,50.40
2023-03-10T08:05:35.591Z,50.27
2023-03-10T08:07:37.822Z,50.10
2023-03-10T08:09:39.561Z,50.11
2023-03-10T08:11:40.896Z,50.30
2023-03-10T08:13:42.819Z,50.33
2023-03-10T08:15:44.608Z,50.45
2023-03-10T08:17:46.030Z,50.15
2023-03-10T08:19:47.465Z,50.13
2023-03-10T08:21:49.032Z,50.36
2023-03-10T08:23:50.379Z,50.12
2023-03-10T08:25:51.735Z,50.11
2023-03-10T08:27:53.144Z,50.42
2023-03-10T08:29:54.462Z,50.21
2023-03-10T08:31:55.825Z,50.33
2023-03-10T08:33:57.275Z,50.25
2023-03-10T08:35:58.636Z,50.01
2023-03-10T08:38:00.023Z,50.06
2023-03-10T08:40:02.244Z,50.39
2023-03-10T08:42:03.599Z,50.31
2023-03-10T08:44:04.965Z,50.39
2023-03-10T08:46:08.595Z,50.29
2023-03-10T08:48:10.255Z,50.27
2023-03-10T08:50:11.588Z,49.89
2023-03-10T08:52:13.090Z,50.07
2023-03-10T08:54:14.432Z,50.53
2023-03-10T08:56:15.873Z,50.28
2023-03-10T08:58:17.225Z,50.28
2023-03-10T09:00:18.602Z,50.25
2023-03-10T09:02:22.081Z,50.00
2023-03-10T09:04:23.516Z,50.16
2023-03-10T09:06:24.896Z,50.42
2023-03-10T09:08:27.696Z,50.28
2023-03-10T09:10:29.619Z,49.99
2023-03-10T09:12:35.562Z,50.33
2023-03-10T09:14:38.262Z,50.18
2023-03-10T09:16:40.442Z,49.97
2023-03-10T09:18:41.984Z,50.27
2023-03-10T09:20:43.373Z,50.29
2023-03-10T09:22:44.860Z,50.39
2023-03-10T09:24:46.226Z,50.11
2023-03-10T09:26:47.630Z,49.94
2023-03-10T09:28:50.895Z,49.88
2023-03-10T09:30:54.160Z,50.18
2023-03-10T09:32:55.875Z,49.96
2023-03-10T09:34:57.322Z,49.92
2023-03-10T09:36:58.660Z,49.96
2023-03-10T09:39:00.134Z,49.50
2023-03-10T09:41:01.453Z,49.58
2023-03-10T09:43:02.790Z,49.54
2023-03-10T09:45:04.356Z,49.02
2023-03-10T09:47:05.829Z,49.12
2023-03-10T09:49:07.184Z,49.25
2023-03-10T09:51:08.818Z,49.08
2023-03-10T09:53:10.195Z,49.01
2023-03-10T09:55:13.198Z,48.76
2023-03-10T09:57:14.621Z,48.75
2023-03-10T09:59:16.014Z,49.02
2023-03-10T10:01:17.418Z,48.74
2023-03-10T10:03:18.824Z,48.88
2023-03-10T10:05:20.223Z,48.66
2023-03-10T10:07:21.552Z,48.60
2023-03-10T10:09:22.901Z,48.99
2023-03-10T10:11:24.353Z,48.65
2023-03-10T10:13:29.826Z,48.61
2023-03-10T10:15:35.339Z,48.94
2023-03-10T10:17:41.731Z,48.90
2023-03-10T10:19:48.741Z,48.86
2023-03-10T10:21:50.107Z,48.63
2023-03-10T10:23:51.477Z,48.96
2023-03-10T10:25:53.509Z,48.76
2023-03-10T10:27:54.861Z,48.95
2023-03-10T10:29:56.204Z,48.75
2023-03-10T10:31:57.661Z,48.82
2023-03-10T10:33:59.089Z,48.99
2023-03-10T10:36:00.481Z,48.91
2023-03-10T10:38:02.243Z,48.97
2023-03-10T10:40:06.145Z,48.97
2023-03-10T10:42:07.513Z,48.95
2023-03-10T10:44:09.483Z,49.39
2023-03-10T10:46:10.986Z,49.47
2023-03-10T10:48:12.370Z,49.41
2023-03-10T10:50:14.541Z,49.67
2023-03-10T10:52:16.640Z,49.69
2023-03-10T10:54:17.984Z,49.79
2023-03-10T10:56:19.327Z,49.80
2023-03-10T10:58:20.726Z,49.78
2023-03-10T11:00:22.045Z,49.99
2023-03-10T11:02:23.479Z,49.72
2023-03-10T11:04:24.941Z,49.95
2023-03-10T11:06:27.256Z,49.61
2023-03-10T11:08:28.638Z,49.68
2023-03-10T11:10:29.971Z,49.61
2023-03-10T11:12:31.295Z,49.30
2023-03-10T11:14:32.682Z,49.43
2023-03-10T11:16:34.067Z,49.32
2023-03-10T11:18:35.460Z,49.20
2023-03-10T11:20:37.214Z,49.42
2023-03-10T11:22:38.542Z,49.04
2023-03-10T11:24:39.938Z,49.25
2023-03-10T11:26:42.295Z,49.07
2023-03-10T11:28:43.730Z,49.18
2023-03-10T11:30:45.126Z,48.99
2023-03-10T11:32:46.641Z,49.03
2023-03-10T11:34:48.005Z,48.84
2023-03-10T11:36:55.853Z,49.23
2023-03-10T11:38:59.523Z,49.38
2023-03-10T11:41:00.973Z,49.18
2023-03-10T11:43:02.350Z,48.96
2023-03-10T11:45:03.676Z,49.03
2023-03-10T11:47:05.050Z,49.32
2023-03-10T11:49:09.074Z,49.01
2023-03-10T11:51:10.414Z,49.17
2023-03-10T11:53:11.788Z,49.32
2023-03-10T11:55:13.106Z,49.20
2023-03-10T11:57:14.545Z,49.28
2023-03-10T11:59:15.897Z,49.36
2023-03-10T12:01:17.244Z,49.08
2023-03-10T12:03:18.637Z,49.38
2023-03-10T12:05:24.230Z,49.45
2023-03-10T12:07:25.645Z,49.47
2023-03-10T12:09:26.970Z,49.36
2023-03-10T12:11:28.354Z,49.54
2023-03-10T12:13:29.702Z,49.64
2023-03-10T12:15:32.720Z,49.24
2023-03-10T12:17:34.151Z,49.20
2023-03-10T12:19:35.493Z,49.11
2023-03-10T12:21:36.867Z,49.19
2023-03-10T12:23:38.198Z,49.25
2023-03-10T12:25:39.564Z,48.95
2023-03-10T12:27:40.883Z,49.16
2023-03-10T12:29:42.389Z,48.87
2023-03-10T12:31:43.817Z,49.04
2023-03-10T12:33:45.280Z,49.14
2023-03-10T12:35:46.657Z,48.88
2023-03-10T12:37:48.008Z,49.13
2023-03-10T12:39:49.339Z,49.07
2023-03-10T12:41:50.731Z,48.86
2023-03-10T12:43:52.289Z,48.88
2023-03-10T12:45:53.601Z,49.16
2023-03-10T12:47:54.976Z,48.95
2023-03-10T12:49:56.298Z,48.99
2023-03-10T12:51:57.685Z,49.21
2023-03-10T12:53:59.025Z,49.00
2023-03-10T12:56:03.269Z,48.96
2023-03-10T12:58:05.132Z,49.18
2023-03-10T13:00:07.570Z,49.28
2023-03-10T13:02:08.912Z,49.18
2023-03-10T13:04:10.282Z,49.26
2023-03-10T13:06:13.157Z,49.06
2023-03-10T13:08:14.543Z,49.17
2023-03-10T13:10:15.889Z,49.15
2023-03-10T13:12:17.221Z,49.46
2023-03-10T13:14:18.581Z,49.48
2023-03-10T13:16:20.016Z,49.21
2023-03-10T13:18:21.412Z,48.97
2023-03-10T13:20:22.745Z,49.08
2023-03-10T13:22:24.073Z,49.14
2023-03-10T13:24:25.517Z,48.90
2023-03-10T13:26:27.114Z,48.42
2023-03-10T13:28:28.453Z,47.41
2023-03-10T13:30:29.793Z,46.34
2023-03-10T13:32:31.301Z,46.87
2023-03-10T13:34:32.747Z,46.65
2023-03-10T13:36:34.154Z,48.32
2023-03-10T13:38:35.485Z,48.66
2023-03-10T13:40:36.962Z,47.83
2023-03-10T13:42:44.340Z,47.63
2023-03-10T13:44:47.492Z,47.86
2023-03-10T13:46:48.893Z,48.72
2023-03-10T13:48:50.216Z,49.07
2023-03-10T13:50:51.656Z,48.76
2023-03-10T13:52:53.072Z,49.08
2023-03-10T13:54:54.592Z,49.40
2023-03-10T13:56:56.024Z,49.46
2023-03-10T13:58:58.330Z,49.50
2023-03-10T14:01:00.958Z,49.42
2023-03-10T14:03:02.625Z,49.68
2023-03-10T14:05:06.338Z,49.47
2023-03-10T14:07:07.703Z,49.80
2023-03-10T14:09:09.036Z,49.58
2023-03-10T14:11:10.388Z,49.98
2023-03-10T14:13:11.720Z,49.96
2023-03-10T14:15:13.929Z,49.79
2023-03-10T14:17:18.037Z,50.10
2023-03-10T14:19:19.361Z,50.03
2023-03-10T14:21:20.733Z,49.77
2023-03-10T14:23:22.532Z,49.81
2023-03-10T14:25:23.924Z,50.01
2023-03-10T14:27:25.256Z,50.61
2023-03-10T14:29:26.579Z,51.37
2023-03-10T14:31:27.968Z,51.99
2023-03-10T14:33:29.299Z,51.74
2023-03-10T14:35:30.718Z,51.69
2023-03-10T14:37:32.063Z,51.69
2023-03-10T14:39:34.747Z,51.64
2023-03-10T14:41:36.081Z,52.17
2023-03-10T14:43:37.460Z,51.67
2023-03-10T14:45:41.101Z,51.86
2023-03-10T14:47:42.897Z,51.95
2023-03-10T14:49:44.452Z,51.74
2023-03-10T14:51:51.488Z,52.11
2023-03-10T14:53:52.889Z,52.06
2023-03-10T14:56:03.341Z,52.03
2023-03-10T14:58:04.649Z,52.54
2023-03-10T15:00:06.726Z,52.28
2023-03-10T15:02:08.288Z,52.73
2023-03-10T15:04:09.901Z,52.59
2023-03-10T15:06:11.218Z,52.92
2023-03-10T15:08:12.633Z,53.24
2023-03-10T15:10:13.983Z,53.20
2023-03-10T15:12:15.463Z,53.33
2023-03-10T15:14:16.806Z,52.98
2023-03-10T15:16:18.200Z,53.06
2023-03-10T15:18:19.763Z,53.04
2023-03-10T15:20:21.212Z,53.30
2023-03-10T15:22:22.755Z,53.50
2023-03-10T15:24:24.083Z,53.25
2023-03-10T15:26:25.430Z,53.29
2023-03-10T15:28:27.073Z,53.09
2023-03-10T15:30:28.401Z,53.40
2023-03-10T15:32:32.790Z,53.35
2023-03-10T15:34:34.187Z,53.70
2023-03-10T15:36:35.571Z,53.59
2023-03-10T15:38:36.910Z,54.02
2023-03-10T15:40:38.950Z,53.72
2023-03-10T15:42:40.305Z,53.62
2023-03-10T15:44:42.052Z,53.57
2023-03-10T15:46:45.768Z,53.61
2023-03-10T15:48:47.194Z,53.47
2023-03-10T15:50:48.550Z,53.25
2023-03-10T15:52:49.894Z,52.99
2023-03-10T15:54:51.274Z,52.75
2023-03-10T15:56:52.601Z,52.65
2023-03-10T15:58:54.154Z,52.80
2023-03-10T16:00:56.050Z,52.92
2023-03-10T16:02:57.446Z,52.34
2023-03-10T16:04:58.848Z,52.52
2023-03-10T16:07:00.229Z,52.33
2023-03-10T16:09:01.567Z,52.45
2023-03-10T16:11:02.908Z,52.28
2023-03-10T16:13:04.356Z,52.08
2023-03-10T16:15:05.672Z,52.12
2023-03-10T16:17:07.055Z,51.94
2023-03-10T16:19:08.532Z,52.02
2023-03-10T16:21:09.951Z,52.01
2023-03-10T16:23:11.309Z,51.74
2023-03-10T16:25:15.405Z,52.07
2023-03-10T16:27:16.944Z,51.55
2023-03-10T16:29:19.873Z,51.95
2023-03-10T16:31:21.333Z,51.61
2023-03-10T16:33:22.688Z,51.64
2023-03-10T16:35:24.019Z,51.72
2023-03-10T16:37:28.443Z,51.66
2023-03-10T16:39:32.821Z,51.41
2023-03-10T16:41:34.157Z,51.05
2023-03-10T16:43:38.461Z,51.23
2023-03-10T16:45:39.879Z,51.01
2023-03-10T16:47:42.215Z,50.88
2023-03-10T16:49:43.611Z,51.07
2023-03-10T16:51:45.084Z,51.07
2023-03-10T16:53:46.536Z,50.71
2023-03-10T16:55:47.859Z,50.84
2023-03-10T16:57:52.838Z,50.87
2023-03-10T16:59:54.324Z,50.85
2023-03-10T17:01:55.683Z,50.84
2023-03-10T17:03:57.406Z,50.77
2023-03-10T17:06:01.831Z,50.72
2023-03-10T17:08:06.049Z,50.48
2023-03-10T17:10:07.464Z,50.76
2023-03-10T17:12:08.795Z,50.93
2023-03-10T17:14:10.279Z,50.62
2023-03-10T17:16:12.556Z,50.61
2023-03-10T17:18:13.937Z,50.58
2023-03-10T17:20:15.300Z,50.46
2023-03-10T17:22:16.933Z,50.82
2023-03-10T17:24:18.278Z,50.65
2023-03-10T17:26:19.644Z,50.65
2023-03-10T17:28:20.985Z,50.57
2023-03-10T17:30:22.406Z,50.66
2023-03-10T17:32:23.824Z,50.28
2023-03-10T17:34:27.177Z,50.63
2023-03-10T17:36:28.594Z,50.61
2023-03-10T17:38:30.145Z,50.51
2023-03-10T17:40:31.612Z,50.69
2023-03-10T17:42:33.024Z,50.75
2023-03-10T17:44:34.345Z,50.57
2023-03-10T17:46:35.750Z,50.70
2023-03-10T17:48:42.981Z,50.33
2023-03-10T17:50:44.321Z,50.49
2023-03-10T17:52:45.654Z,50.43
2023-03-10T17:54:47.015Z,50.37
2023-03-10T17:56:51.205Z,50.21
2023-03-10T17:58:52.521Z,50.65
2023-03-10T18:00:53.864Z,50.40
2023-03-10T18:02:55.339Z,50.71
2023-03-10T18:04:56.918Z,50.41
2023-03-10T18:06:58.269Z,50.53
2023-03-10T18:08:59.656Z,50.47
2023-03-10T18:11:01.067Z,50.66
2023-03-10T18:13:02.468Z,50.61
2023-03-10T18:15:03.971Z,50.44
2023-03-10T18:17:05.353Z,50.95
2023-03-10T18:19:09.857Z,50.89
2023-03-10T18:21:11.795Z,51.24
2023-03-10T18:23:13.159Z,51.01
2023-03-10T18:25:14.570Z,51.16
2023-03-10T18:27:16.017Z,51.45
2023-03-10T18:29:18.239Z,51.39
2023-03-10T18:31:19.728Z,51.30
2023-03-10T18:33:21.100Z,51.24
2023-03-10T18:35:22.978Z,50.90
2023-03-10T18:37:24.416Z,51.16
2023-03-10T18:39:28.497Z,50.85
2023-03-10T18:41:30.916Z,50.73
2023-03-10T18:43:34.028Z,50.48
2023-03-10T18:45:35.365Z,50.54
2023-03-10T18:47:36.739Z,50.55
2023-03-10T18:49:38.127Z,50.22
2023-03-10T18:51:39.585Z,50.09
2023-03-10T18:53:41.010Z,50.24
2023-03-10T18:55:42.345Z,50.11
2023-03-10T18:57:43.673Z,49.77
2023-03-10T18:59:45.023Z,49.84
2023-03-10T19:01:46.499Z,50.03
2023-03-10T19:03:47.866Z,50.70
2023-03-10T19:05:49.211Z,49.82
2023-03-10T19:07:53.585Z,48.99
2023-03-10T19:10:01.104Z,48.81
2023-03-10T19:12:02.446Z,48.68
2023-03-10T19:14:05.391Z,49.35
2023-03-10T19:16:09.784Z,49.54
2023-03-10T19:18:11.209Z,49.75
2023-03-10T19:20:12.591Z,49.85
2023-03-10T19:22:13.982Z,49.96
2023-03-10T19:24:15.349Z,50.31
2023-03-10T19:26:16.729Z,50.03
2023-03-10T19:28:18.061Z,49.58
2023-03-10T19:30:20.181Z,49.10
2023-03-10T19:32:21.614Z,48.66
2023-03-10T19:34:23.021Z,49.75
2023-03-10T19:36:26.611Z,47.97
2023-03-10T19:38:28.276Z,48.90
2023-03-10T19:40:29.619Z,49.40
2023-03-10T19:42:30.941Z,49.56
2023-03-10T19:44:32.497Z,50.27
2023-03-10T19:46:33.917Z,50.33
2023-03-10T19:48:35.286Z,50.99
2023-03-10T19:50:36.684Z,51.33
2023-03-10T19:52:39.079Z,51.83
2023-03-10T19:54:43.486Z,51.62
2023-03-10T19:56:44.852Z,51.12
2023-03-10T19:58:49.266Z,50.93
2023-03-10T20:00:52.164Z,51.20
2023-03-10T20:02:53.642Z,50.81
2023-03-10T20:04:58.101Z,50.89
2023-03-10T20:07:00.292Z,50.58
2023-03-10T20:09:01.679Z,51.22
2023-03-10T20:11:03.451Z,51.19
2023-03-10T20:13:04.781Z,51.37
2023-03-10T20:15:06.120Z,51.51
2023-03-10T20:17:10.335Z,51.46
2023-03-10T20:19:11.846Z,51.48
2023-03-10T20:21:13.184Z,51.12
2023-03-10T20:23:15.053Z,51.43
2023-03-10T20:25:16.542Z,51.25
2023-03-10T20:27:17.913Z,50.77
2023-03-10T20:29:19.260Z,50.78
2023-03-10T20:31:23.745Z,50.57
2023-03-10T20:33:25.124Z,50.39
2023-03-10T20:35:26.565Z,50.49
2023-03-10T20:37:27.979Z,49.00
2023-03-10T20:39:30.336Z,49.34
2023-03-10T20:41:31.666Z,48.03
2023-03-10T20:43:33.016Z,48.96
2023-03-10T20:45:34.432Z,49.18
2023-03-10T20:47:35.836Z,49.61
2023-03-10T20:49:37.201Z,49.39
2023-03-10T20:51:38.550Z,50.03
2023-03-10T20:53:39.906Z,49.59
2023-03-10T20:55:41.233Z,49.98
2023-03-10T20:57:42.566Z,49.68
2023-03-10T20:59:43.929Z,49.90
2023-03-10T21:01:45.251Z,49.43
2023-03-10T21:03:49.297Z,52.66
2023-03-10T21:05:50.702Z,49.73
2023-03-10T21:07:52.141Z,49.17
2023-03-10T21:09:53.467Z,48.99
2023-03-10T21:11:54.809Z,49.00
2023-03-10T21:13:56.155Z,49.39
2023-03-10T21:16:00.623Z,48.43
2023-03-10T21:18:02.202Z,49.28
2023-03-10T21:20:05.978Z,49.85
2023-03-10T21:22:07.358Z,50.21
2023-03-10T21:24:08.772Z,49.51
2023-03-10T21:26:10.465Z,50.25
2023-03-10T21:28:11.823Z,50.54
2023-03-10T21:30:13.188Z,50.45
2023-03-10T21:32:14.579Z,50.57
2023-03-10T21:34:18.971Z,49.37
2023-03-10T21:36:29.334Z,49.60
2023-03-10T21:38:31.254Z,49.88
2023-03-10T21:40:32.654Z,51.19
2023-03-10T21:42:34.074Z,51.36
2023-03-10T21:44:35.461Z,51.81
2023-03-10T21:46:36.872Z,51.89
2023-03-10T21:48:38.415Z,51.97
2023-03-10T21:50:39.803Z,51.69
2023-03-10T21:52:41.197Z,51.58
2023-03-10T21:54:46.139Z,51.57
2023-03-10T21:56:47.588Z,52.33
2023-03-10T21:58:48.926Z,51.79
2023-03-10T22:00:50.280Z,51.78
2023-03-10T22:02:51.711Z,51.19
2023-03-10T22:04:53.109Z,51.19
2023-03-10T22:06:57.263Z,51.39
2023-03-10T22:08:58.673Z,51.50
2023-03-10T22:10:59.993Z,51.08
2023-03-10T22:13:02.510Z,51.24
2023-03-10T22:15:04.019Z,51.20
2023-03-10T22:17:05.346Z,51.55
2023-03-10T22:19:09.706Z,51.24
2023-03-10T22:21:13.960Z,51.15
2023-03-10T22:23:15.342Z,51.76
2023-03-10T22:25:16.774Z,51.79
2023-03-10T22:27:18.201Z,51.89
2023-03-10T22:29:19.598Z,51.37
2023-03-10T22:31:22.261Z,50.88
2023-03-10T22:33:23.686Z,50.42
2023-03-10T22:35:25.083Z,50.36
2023-03-10T22:37:26.473Z,50.33
2023-03-10T22:39:27.812Z,50.07
2023-03-10T22:41:29.327Z,50.36
2023-03-10T22:43:30.671Z,50.71
2023-03-10T22:45:32.060Z,51.62
2023-03-10T22:47:33.442Z,52.42
2023-03-10T22:49:34.785Z,51.98
2023-03-10T22:51:36.150Z,50.98
2023-03-10T22:53:38.210Z,51.04
2023-03-10T22:55:39.608Z,49.98
2023-03-10T22:57:40.957Z,50.84
2023-03-10T22:59:42.413Z,50.47
2023-03-10T23:01:44.144Z,51.35
2023-03-10T23:03:45.541Z,51.33
2023-03-10T23:05:47.081Z,51.19
2023-03-10T23:07:48.395Z,51.23
2023-03-10T23:09:50.175Z,51.77
2023-03-10T23:11:51.526Z,51.07
2023-03-10T23:13:52.944Z,50.70
2023-03-10T23:15:54.392Z,50.96
2023-03-10T23:17:55.807Z,49.87
2023-03-10T23:19:57.549Z,49.84
2023-03-10T23:21:59.066Z,50.80
2023-03-10T23:24:00.402Z,50.92
2023-03-10T23:26:01.734Z,50.80
2023-03-10T23:28:03.141Z,51.13
2023-03-10T23:30:04.755Z,51.16
2023-03-10T23:32:06.154Z,51.20
2023-03-10T23:34:07.522Z,50.85
2023-03-10T23:36:08.869Z,51.37
2023-03-10T23:38:10.218Z,47.17
2023-03-10T23:40:11.627Z,47.14
2023-03-10T23:42:12.958Z,48.70
2023-03-10T23:44:14.308Z,48.53
2023-03-10T23:46:15.777Z,48.61
2023-03-10T23:48:17.217Z,48.66
2023-03-10T23:50:18.608Z,49.16
2023-03-10T23:52:19.933Z,49.31
2023-03-10T23:54:22.453Z,49.41
2023-03-10T23:56:23.876Z,49.16
2023-03-10T23:58:25.226Z,49.59
